Time;durP1;ratioP1;P1;durP2;ratioP2;P2;SDS_P1;SDS_P2;PMS_P1;PMS_P2;Temp;Humidity;BMP_temperature;BMP_pressure;BME280_temperature;BME280_humidity;BME280_pressure;Samples;Min_cycle;Max_cycle;Signal;HPM_P1;HPM_P2
2023/12/16 00:02:02;;;;;;;962.17;874.42;;;6.90;99.90;;;;;;5052186;28;20104;-87
2023/12/16 00:04:27;;;;;;;931.67;849.75;;;6.90;99.90;;;;;;5052359;28;20083;-87
2023/12/16 00:06:53;;;;;;;936.80;852.50;;;6.90;99.90;;;;;;5052142;28;20623;-87
2023/12/16 00:09:19;;;;;;;946.97;861.55;;;7.00;99.90;;;;;;5053344;28;20040;-87
2023/12/16 00:11:44;;;;;;;959.58;869.67;;;6.90;99.90;;;;;;5052070;28;20035;-86
2023/12/16 00:14:10;;;;;;;918.00;837.45;;;7.20;99.90;;;;;;5069982;28;20116;-86
2023/12/16 00:16:35;;;;;;;953.55;860.10;;;7.00;99.90;;;;;;5071080;28;20064;-86
2023/12/16 00:19:01;;;;;;;965.50;872.50;;;7.10;99.90;;;;;;5050950;28;20044;-87
2023/12/16 00:21:27;;;;;;;960.88;867.40;;;7.90;99.90;;;;;;5046636;28;20045;-86
2023/12/16 00:23:52;;;;;;;982.67;888.58;;;8.20;99.90;;;;;;5051348;28;20432;-87
2023/12/16 00:26:18;;;;;;;988.00;887.35;;;7.50;99.90;;;;;;5051765;28;20047;-86
2023/12/16 00:28:44;;;;;;;973.72;883.00;;;6.90;99.90;;;;;;5056206;28;20029;-86
2023/12/16 00:31:10;;;;;;;970.40;877.15;;;8.00;99.90;;;;;;5053228;28;20124;-86
2023/12/16 00:33:35;;;;;;;986.88;886.85;;;8.00;99.90;;;;;;5057331;28;20067;-88
2023/12/16 00:36:01;;;;;;;966.67;876.25;;;6.90;99.90;;;;;;5072805;28;20485;-87
2023/12/16 00:38:27;;;;;;;986.80;888.95;;;7.10;99.90;;;;;;5062006;28;20095;-86
2023/12/16 00:40:52;;;;;;;972.72;879.30;;;6.80;99.90;;;;;;5060069;28;20044;-86
2023/12/16 00:43:18;;;;;;;979.58;885.00;;;7.60;99.90;;;;;;5067790;28;20041;-86
2023/12/16 00:45:43;;;;;;;972.95;879.22;;;7.90;99.90;;;;;;5050018;28;20033;-86
2023/12/16 00:48:09;;;;;;;988.83;889.95;;;6.70;99.90;;;;;;5068893;28;20096;-86
2023/12/16 00:50:38;;;;;;;989.80;891.70;;;6.60;99.90;;;;;;5054753;28;20043;-87
2023/12/16 00:53:03;;;;;;;962.20;873.33;;;6.60;99.90;;;;;;5070865;28;20090;-86
2023/12/16 00:55:29;;;;;;;959.97;874.55;;;6.50;99.90;;;;;;5050516;28;20051;-86
2023/12/16 00:57:55;;;;;;;996.13;894.53;;;6.90;99.90;;;;;;5051044;28;20052;-87
2023/12/16 01:00:20;;;;;;;973.65;881.40;;;6.50;99.90;;;;;;5052297;28;20047;-87
2023/12/16 01:02:46;;;;;;;919.78;838.55;;;6.50;99.90;;;;;;5048895;28;20052;-86
2023/12/16 01:05:12;;;;;;;959.47;873.15;;;6.50;99.90;;;;;;5049600;28;20482;-87
2023/12/16 01:07:37;;;;;;;957.08;867.78;;;6.90;99.90;;;;;;5053589;28;20056;-87
2023/12/16 01:10:03;;;;;;;975.97;882.58;;;7.50;99.90;;;;;;5054055;28;20123;-86
2023/12/16 01:12:29;;;;;;;958.85;869.95;;;6.40;99.90;;;;;;5049298;28;20033;-87
2023/12/16 01:14:55;;;;;;;935.88;852.17;;;6.40;99.90;;;;;;5051239;28;20036;-86
2023/12/16 01:17:20;;;;;;;954.95;869.47;;;6.30;99.90;;;;;;5065969;28;20049;-86
2023/12/16 01:19:46;;;;;;;955.65;868.17;;;6.30;99.90;;;;;;5065187;28;20110;-86
2023/12/16 01:22:12;;;;;;;978.00;882.67;;;6.30;99.90;;;;;;5050050;28;20071;-86
2023/12/16 01:24:38;;;;;;;910.75;833.15;;;6.50;99.90;;;;;;5050998;28;20048;-87
2023/12/16 01:27:05;;;;;;;956.13;867.47;;;6.60;99.90;;;;;;5053547;28;20045;-87
2023/12/16 01:29:30;;;;;;;917.47;839.72;;;7.10;99.90;;;;;;5051122;28;20048;-86
2023/12/16 01:31:56;;;;;;;908.15;833.95;;;6.70;99.90;;;;;;5069843;28;20025;-87
2023/12/16 01:34:25;;;;;;;933.95;847.08;;;6.50;99.90;;;;;;5069416;28;20045;-87
2023/12/16 01:36:50;;;;;;;884.22;809.03;;;7.10;99.90;;;;;;5048416;28;20048;-87
2023/12/16 01:39:16;;;;;;;940.65;856.03;;;7.30;99.90;;;;;;5047622;28;20036;-86
2023/12/16 01:41:42;;;;;;;922.85;842.85;;;7.40;99.90;;;;;;5073600;28;20035;-86
2023/12/16 01:44:07;;;;;;;920.15;839.25;;;5.60;99.90;;;;;;5057841;28;20053;-87
2023/12/16 01:46:35;;;;;;;932.70;851.47;;;6.00;99.90;;;;;;5051499;28;20128;-86
2023/12/16 01:49:01;;;;;;;877.00;805.08;;;6.30;99.90;;;;;;5059311;28;20048;-86
2023/12/16 01:51:28;;;;;;;877.45;806.08;;;7.10;99.90;;;;;;5058324;28;20060;-87
2023/12/16 01:53:54;;;;;;;920.38;837.80;;;6.90;99.90;;;;;;5074796;28;20072;-86
2023/12/16 01:56:21;;;;;;;973.22;881.85;;;7.10;99.90;;;;;;5066415;28;20095;-87
2023/12/16 01:58:49;;;;;;;944.90;860.13;;;5.90;99.90;;;;;;5071539;28;20105;-87
2023/12/16 02:01:15;;;;;;;934.08;847.25;;;6.90;99.90;;;;;;5068943;28;20047;-86
2023/12/16 02:03:42;;;;;;;911.40;830.05;;;5.90;99.90;;;;;;5068509;28;20033;-86
2023/12/16 02:06:07;;;;;;;937.13;855.08;;;5.80;99.90;;;;;;5053759;28;20145;-86
2023/12/16 02:08:33;;;;;;;927.58;841.58;;;6.20;99.90;;;;;;5055888;28;20076;-86
2023/12/16 02:10:59;;;;;;;917.00;835.42;;;5.90;99.90;;;;;;5066757;28;20037;-86
2023/12/16 02:13:25;;;;;;;909.33;831.80;;;6.70;99.90;;;;;;5051112;28;20039;-86
2023/12/16 02:15:50;;;;;;;901.85;822.42;;;5.80;99.90;;;;;;5056491;28;20071;-87
2023/12/16 02:18:16;;;;;;;897.05;819.22;;;5.80;99.90;;;;;;5054852;28;20040;-86
2023/12/16 02:20:42;;;;;;;897.15;822.22;;;7.20;99.90;;;;;;5053091;28;20076;-87
2023/12/16 02:23:17;;;;;;;893.50;818.88;;;7.00;99.90;;;;;;5055134;28;20116;-87
2023/12/16 02:25:44;;;;;;;905.30;830.17;;;5.80;99.90;;;;;;5055528;28;20128;-86
2023/12/16 02:28:10;;;;;;;921.70;836.92;;;6.30;99.90;;;;;;5057467;28;20041;-87
2023/12/16 02:30:36;;;;;;;865.20;795.92;;;5.80;99.90;;;;;;5057797;28;20048;-87
2023/12/16 02:33:02;;;;;;;892.28;814.05;;;6.10;99.90;;;;;;5055332;28;20033;-86
2023/12/16 02:35:28;;;;;;;886.40;813.03;;;5.80;99.90;;;;;;5063987;28;20041;-86
2023/12/16 02:37:53;;;;;;;934.60;848.67;;;5.80;99.90;;;;;;5067349;28;20040;-86
2023/12/16 02:40:19;;;;;;;919.28;837.25;;;6.00;99.90;;;;;;5069018;28;20033;-86
2023/12/16 02:42:45;;;;;;;902.60;825.25;;;7.00;99.90;;;;;;5087008;28;20053;-86
2023/12/16 02:45:11;;;;;;;901.03;823.05;;;5.80;99.90;;;;;;5053042;28;20481;-86
2023/12/16 02:47:36;;;;;;;896.60;815.50;;;5.70;99.90;;;;;;5068553;28;20113;-86
2023/12/16 02:50:03;;;;;;;905.50;825.53;;;5.70;99.90;;;;;;5056908;28;20081;-86
2023/12/16 02:52:30;;;;;;;945.50;853.88;;;5.70;99.90;;;;;;5048846;28;20120;-87
2023/12/16 02:54:56;;;;;;;876.38;806.25;;;5.80;99.90;;;;;;5071783;28;20074;-87
2023/12/16 02:57:21;;;;;;;909.10;828.13;;;5.70;99.90;;;;;;5074824;28;20492;-86
2023/12/16 02:59:47;;;;;;;886.65;810.85;;;5.60;99.90;;;;;;5071607;28;20394;-86
2023/12/16 03:02:12;;;;;;;863.05;793.55;;;5.50;99.90;;;;;;5052458;28;20610;-86
2023/12/16 03:04:38;;;;;;;830.30;764.85;;;5.50;99.90;;;;;;5054014;28;20045;-87
2023/12/16 03:07:04;;;;;;;874.75;802.03;;;5.50;99.90;;;;;;5049154;28;20033;-87
2023/12/16 03:09:29;;;;;;;852.70;781.92;;;6.40;99.90;;;;;;5073485;28;20036;-86
2023/12/16 03:11:55;;;;;;;852.33;783.05;;;5.40;99.90;;;;;;5051160;28;20036;-87
2023/12/16 03:14:21;;;;;;;842.30;772.65;;;5.40;99.90;;;;;;5068033;28;20056;-86
2023/12/16 03:16:47;;;;;;;878.15;804.17;;;5.00;99.90;;;;;;5052632;28;20052;-87
2023/12/16 03:19:13;;;;;;;824.00;759.25;;;6.50;99.90;;;;;;5050024;28;20029;-86
2023/12/16 03:21:39;;;;;;;831.65;764.00;;;5.30;99.90;;;;;;5068798;28;20083;-87
2023/12/16 03:24:05;;;;;;;807.88;744.40;;;5.30;99.90;;;;;;5051348;28;20051;-86
2023/12/16 03:26:31;;;;;;;818.92;753.67;;;5.30;99.90;;;;;;5051664;28;20068;-87
2023/12/16 03:28:56;;;;;;;821.20;756.50;;;5.30;99.90;;;;;;5060792;28;20037;-87
2023/12/16 03:31:23;;;;;;;882.05;809.15;;;5.30;99.90;;;;;;5067081;28;20041;-87
2023/12/16 03:33:49;;;;;;;859.72;789.08;;;5.30;99.90;;;;;;5065395;28;20113;-86
2023/12/16 03:36:14;;;;;;;860.28;786.42;;;6.30;99.90;;;;;;5052591;28;20064;-88
2023/12/16 03:38:43;;;;;;;825.15;759.25;;;6.20;99.90;;;;;;5051308;28;20045;-87
2023/12/16 03:41:09;;;;;;;847.00;773.75;;;5.20;99.90;;;;;;5055365;28;20051;-87
2023/12/16 03:43:34;;;;;;;847.63;775.08;;;5.20;99.90;;;;;;5055584;28;20036;-86
2023/12/16 03:46:00;;;;;;;840.25;773.67;;;5.20;99.90;;;;;;5067831;28;20040;-86
2023/12/16 03:48:26;;;;;;;831.35;763.72;;;5.20;99.90;;;;;;5054120;28;20057;-86
2023/12/16 03:50:51;;;;;;;826.10;755.50;;;5.20;99.90;;;;;;5059340;28;20040;-87
2023/12/16 03:53:17;;;;;;;836.97;763.58;;;5.20;99.90;;;;;;5071330;28;20029;-86
2023/12/16 03:55:43;;;;;;;869.58;787.90;;;5.20;99.90;;;;;;5056298;28;20048;-86
2023/12/16 03:58:08;;;;;;;816.90;754.08;;;5.50;99.90;;;;;;5044655;28;20041;-87
2023/12/16 04:00:34;;;;;;;837.35;763.92;;;6.40;99.90;;;;;;5067776;28;20056;-86
2023/12/16 04:03:04;;;;;;;807.35;741.47;;;5.20;99.90;;;;;;5052602;28;20046;-86
2023/12/16 04:05:30;;;;;;;813.83;748.55;;;5.20;99.90;;;;;;5085896;28;20040;-86
2023/12/16 04:07:55;;;;;;;799.00;736.10;;;6.50;99.90;;;;;;5067241;28;20079;-87
2023/12/16 04:10:21;;;;;;;812.45;748.50;;;6.20;99.90;;;;;;5051654;28;20068;-86
2023/12/16 04:12:46;;;;;;;831.95;760.00;;;5.20;99.90;;;;;;5051854;28;20032;-86
2023/12/16 04:15:12;;;;;;;798.60;733.78;;;5.10;99.90;;;;;;5067992;28;20036;-86
2023/12/16 04:17:38;;;;;;;805.17;740.53;;;5.50;99.90;;;;;;5071374;28;20044;-86
2023/12/16 04:20:05;;;;;;;828.20;756.38;;;5.80;99.90;;;;;;5064961;28;20049;-87
2023/12/16 04:22:31;;;;;;;844.72;769.67;;;5.20;99.90;;;;;;5066399;28;20076;-86
2023/12/16 04:25:00;;;;;;;784.20;719.97;;;5.10;99.90;;;;;;5051984;28;20036;-86
2023/12/16 04:27:27;;;;;;;797.67;733.70;;;4.40;99.90;;;;;;5058428;28;20405;-86
2023/12/16 04:29:52;;;;;;;805.85;737.42;;;6.00;99.90;;;;;;5066522;28;20036;-86
2023/12/16 04:32:18;;;;;;;778.85;717.38;;;4.40;99.90;;;;;;5051065;28;20065;-87
2023/12/16 04:34:44;;;;;;;781.42;716.78;;;5.80;99.90;;;;;;5056095;28;20068;-87
2023/12/16 04:37:10;;;;;;;815.42;748.55;;;6.30;99.90;;;;;;5061727;28;20069;-86
2023/12/16 04:39:36;;;;;;;791.45;727.40;;;5.60;99.90;;;;;;5060352;28;20055;-86
2023/12/16 04:42:05;;;;;;;793.05;727.60;;;5.10;99.90;;;;;;5074695;28;20036;-86
2023/12/16 04:44:31;;;;;;;795.80;731.10;;;5.20;99.90;;;;;;5060894;28;20040;-87
2023/12/16 04:46:58;;;;;;;871.85;790.45;;;5.10;99.90;;;;;;5049330;28;20055;-87
2023/12/16 04:49:23;;;;;;;807.60;741.05;;;5.10;99.90;;;;;;5050890;28;20420;-86
2023/12/16 04:51:49;;;;;;;842.25;768.30;;;5.10;99.90;;;;;;5070579;28;20074;-86
2023/12/16 04:54:16;;;;;;;841.88;770.80;;;5.20;99.90;;;;;;5049566;28;20037;-86
2023/12/16 04:56:42;;;;;;;886.40;804.83;;;5.10;99.90;;;;;;5048760;28;20412;-87
2023/12/16 04:59:07;;;;;;;796.08;731.92;;;5.20;99.90;;;;;;5050715;28;20049;-86
2023/12/16 05:01:33;;;;;;;872.47;792.92;;;6.00;99.90;;;;;;5049478;28;20040;-86
2023/12/16 05:03:59;;;;;;;820.15;751.28;;;6.20;99.90;;;;;;5065935;28;20039;-87
2023/12/16 05:06:27;;;;;;;851.22;773.85;;;6.40;99.90;;;;;;5065419;28;20076;-87
2023/12/16 05:08:53;;;;;;;781.65;720.20;;;5.10;99.90;;;;;;5054286;28;20040;-87
2023/12/16 05:11:19;;;;;;;835.42;762.92;;;5.10;99.90;;;;;;5049623;28;20061;-86
2023/12/16 05:13:45;;;;;;;849.15;780.35;;;6.10;99.90;;;;;;5045207;28;20420;-86
2023/12/16 05:16:10;;;;;;;820.88;752.83;;;5.40;99.90;;;;;;5054967;28;20051;-87
2023/12/16 05:18:36;;;;;;;790.85;726.80;;;5.90;99.90;;;;;;5071849;28;20460;-87
2023/12/16 05:21:02;;;;;;;799.38;732.92;;;6.20;99.90;;;;;;5056250;28;20048;-86
2023/12/16 05:23:27;;;;;;;840.53;767.78;;;5.10;99.90;;;;;;5051690;28;20055;-86
2023/12/16 05:25:53;;;;;;;857.10;778.17;;;6.00;99.90;;;;;;5047224;28;20547;-86
2023/12/16 05:28:19;;;;;;;849.15;775.97;;;5.20;99.90;;;;;;5048387;28;20052;-86
2023/12/16 05:30:45;;;;;;;923.05;836.58;;;5.00;99.90;;;;;;5051871;28;20037;-86
2023/12/16 05:33:10;;;;;;;866.50;791.25;;;5.00;99.90;;;;;;5053368;28;20133;-86
2023/12/16 05:35:36;;;;;;;888.90;809.95;;;5.00;99.90;;;;;;5054714;28;20069;-87
2023/12/16 05:38:02;;;;;;;937.25;851.30;;;5.00;99.90;;;;;;5050196;28;20041;-86
2023/12/16 05:40:28;;;;;;;909.83;831.65;;;5.00;99.90;;;;;;5052147;28;20040;-86
2023/12/16 05:42:54;;;;;;;897.17;817.33;;;5.00;99.90;;;;;;5048813;28;20033;-86
2023/12/16 05:45:19;;;;;;;989.97;888.53;;;5.30;99.90;;;;;;5053307;28;20642;-87
2023/12/16 05:47:45;;;;;;;904.60;824.50;;;6.10;99.90;;;;;;5044415;28;20090;-86
2023/12/16 05:50:11;;;;;;;936.65;851.95;;;5.00;99.90;;;;;;5044868;28;20029;-87
2023/12/16 05:52:39;;;;;;;918.75;837.70;;;5.10;99.90;;;;;;5049942;28;20033;-87
2023/12/16 05:55:05;;;;;;;940.38;857.35;;;5.10;99.90;;;;;;5049201;28;20048;-86
2023/12/16 05:57:31;;;;;;;918.53;839.85;;;5.10;99.90;;;;;;5064844;28;20128;-86
2023/12/16 05:59:56;;;;;;;970.92;880.40;;;5.20;99.90;;;;;;5047380;28;20068;-86
2023/12/16 06:02:22;;;;;;;961.78;871.38;;;5.20;99.90;;;;;;5050591;28;20032;-86
2023/12/16 06:04:48;;;;;;;948.35;859.05;;;5.30;99.90;;;;;;5050811;28;20033;-86
2023/12/16 06:07:14;;;;;;;948.70;862.97;;;5.80;99.90;;;;;;5056238;28;20040;-87
2023/12/16 06:09:39;;;;;;;958.03;872.75;;;5.50;99.90;;;;;;5058820;28;20040;-87
2023/12/16 06:12:05;;;;;;;953.85;868.47;;;5.50;99.90;;;;;;5047340;28;20069;-87
2023/12/16 06:14:31;;;;;;;959.78;870.67;;;5.60;99.90;;;;;;5067840;28;20123;-86
2023/12/16 06:16:56;;;;;;;973.42;880.88;;;5.70;99.90;;;;;;5052168;28;20065;-86
2023/12/16 06:19:22;;;;;;;942.45;857.33;;;6.80;99.90;;;;;;5052230;28;20082;-87
2023/12/16 06:21:50;;;;;;;978.33;882.33;;;5.80;99.90;;;;;;5049117;28;20076;-87
2023/12/16 06:24:16;;;;;;;970.97;877.75;;;5.90;99.90;;;;;;5064467;28;20045;-86
2023/12/16 06:26:41;;;;;;;920.60;839.45;;;5.90;99.90;;;;;;5051641;28;20377;-87
2023/12/16 06:29:07;;;;;;;942.97;853.80;;;6.70;99.90;;;;;;5056607;28;20056;-86
2023/12/16 06:31:33;;;;;;;939.28;848.10;;;6.00;99.90;;;;;;5051499;28;20071;-86
2023/12/16 06:33:59;;;;;;;931.22;845.78;;;6.00;99.90;;;;;;5068236;28;20128;-86
2023/12/16 06:36:24;;;;;;;925.63;837.50;;;6.90;99.90;;;;;;5065508;28;20059;-87
2023/12/16 06:38:53;;;;;;;923.03;833.55;;;6.00;99.90;;;;;;5084900;28;20044;-87
2023/12/16 06:41:19;;;;;;;909.47;825.72;;;6.00;99.90;;;;;;5058903;28;20112;-87
2023/12/16 06:43:44;;;;;;;933.35;843.42;;;6.10;99.90;;;;;;5055254;28;20067;-87
2023/12/16 06:46:10;;;;;;;960.38;865.65;;;6.10;99.90;;;;;;5073135;28;20047;-87
2023/12/16 06:48:35;;;;;;;945.72;855.08;;;6.10;99.90;;;;;;5055456;28;20033;-87
2023/12/16 06:51:02;;;;;;;969.05;873.67;;;6.10;99.90;;;;;;5054248;28;20062;-86
2023/12/16 06:53:27;;;;;;;977.33;881.47;;;6.10;99.90;;;;;;5050614;28;20047;-87
2023/12/16 06:55:53;;;;;;;1002.40;897.15;;;6.10;99.90;;;;;;5073860;28;20033;-87
2023/12/16 06:58:20;;;;;;;884.67;805.55;;;6.10;99.90;;;;;;5052207;28;20076;-86
2023/12/16 07:00:46;;;;;;;1004.33;895.35;;;6.90;99.90;;;;;;5051889;28;20116;-86
2023/12/16 07:03:11;;;;;;;1005.17;895.92;;;7.10;99.90;;;;;;5068229;28;20065;-86
2023/12/16 07:05:37;;;;;;;973.20;872.95;;;6.20;99.90;;;;;;5053316;28;20048;-87
2023/12/16 07:08:03;;;;;;;954.38;862.60;;;6.20;99.90;;;;;;5060212;28;20039;-86
2023/12/16 07:10:29;;;;;;;957.33;863.55;;;6.20;99.90;;;;;;5055447;28;20045;-87
2023/12/16 07:12:56;;;;;;;958.17;865.60;;;6.30;99.90;;;;;;5051692;28;20044;-87
2023/12/16 07:15:21;;;;;;;937.13;849.72;;;6.20;99.90;;;;;;5053837;28;20071;-87
2023/12/16 07:17:47;;;;;;;951.58;857.60;;;6.30;99.90;;;;;;5055724;28;20032;-87
2023/12/16 07:20:13;;;;;;;1000.78;896.30;;;6.50;99.90;;;;;;5050961;28;20052;-87
2023/12/16 07:22:40;;;;;;;974.03;873.75;;;7.40;99.90;;;;;;5052985;28;20079;-87
2023/12/16 07:25:09;;;;;;;942.70;851.90;;;7.30;99.90;;;;;;5052758;28;20041;-87
2023/12/16 07:27:35;;;;;;;933.58;844.15;;;6.30;99.90;;;;;;5048489;28;20033;-86
2023/12/16 07:30:01;;;;;;;955.60;861.72;;;6.40;99.90;;;;;;5050464;28;20060;-87
2023/12/16 07:32:27;;;;;;;929.55;842.45;;;6.40;99.90;;;;;;5054082;28;20037;-87
2023/12/16 07:34:52;;;;;;;1017.67;896.58;;;7.00;99.90;;;;;;5049814;28;20040;-87
2023/12/16 07:37:18;;;;;;;1019.83;906.50;;;6.40;99.90;;;;;;5052004;28;20045;-87
2023/12/16 07:39:44;;;;;;;936.17;847.30;;;7.20;99.90;;;;;;5057553;28;20044;-88
2023/12/16 07:42:11;;;;;;;943.17;852.95;;;6.40;99.90;;;;;;5055084;28;20415;-86
2023/12/16 07:44:37;;;;;;;967.00;871.67;;;6.40;99.90;;;;;;5052427;28;20102;-86
2023/12/16 07:47:03;;;;;;;962.90;865.47;;;6.80;99.90;;;;;;5055212;28;20476;-87
2023/12/16 07:49:28;;;;;;;968.55;866.17;;;6.50;99.90;;;;;;5050971;28;20071;-87
2023/12/16 07:51:54;;;;;;;968.40;873.13;;;6.80;99.90;;;;;;5068454;28;20032;-86
2023/12/16 07:54:30;;;;;;;937.92;847.92;;;7.60;99.90;;;;;;5057404;28;20036;-85
2023/12/16 07:56:55;;;;;;;971.17;867.38;;;7.20;99.90;;;;;;5054541;28;20036;-87
2023/12/16 07:59:21;;;;;;;943.20;850.65;;;7.60;99.90;;;;;;5050004;28;20106;-86
2023/12/16 08:01:54;;;;;;;1018.10;911.17;;;6.60;99.90;;;;;;5055824;28;20049;-88
2023/12/16 08:04:19;;;;;;;941.65;853.30;;;7.40;99.90;;;;;;5071264;28;20047;-87
2023/12/16 08:06:45;;;;;;;956.25;860.83;;;6.70;99.90;;;;;;5066714;28;20613;-87
2023/12/16 08:09:12;;;;;;;967.80;867.75;;;6.60;99.90;;;;;;5049924;28;20067;-87
2023/12/16 08:11:37;;;;;;;1052.38;930.58;;;6.60;99.90;;;;;;5048929;28;20044;-87
2023/12/16 08:14:07;;;;;;;1002.50;901.25;;;6.70;99.90;;;;;;5046843;28;20045;-87
2023/12/16 08:16:36;;;;;;;943.40;846.10;;;7.60;99.90;;;;;;5064178;28;20060;-87
2023/12/16 08:19:08;;;;;;;994.63;891.30;;;6.70;99.90;;;;;;5070352;28;20052;-87
2023/12/16 08:21:33;;;;;;;1003.05;896.92;;;7.50;99.90;;;;;;5051465;28;20098;-87
2023/12/16 08:23:59;;;;;;;921.35;835.33;;;8.00;99.90;;;;;;5066542;28;20447;-87
2023/12/16 08:26:27;;;;;;;936.53;846.53;;;7.80;99.90;;;;;;5053324;28;20562;-88
2023/12/16 08:28:52;;;;;;;901.75;819.75;;;8.00;99.90;;;;;;5054834;28;20610;-87
2023/12/16 08:31:18;;;;;;;1001.40;894.92;;;7.40;99.90;;;;;;5049936;28;20036;-87
2023/12/16 08:33:43;;;;;;;1011.95;905.30;;;6.70;99.90;;;;;;5048268;28;20033;-87
2023/12/16 08:36:09;;;;;;;1039.97;911.85;;;6.80;99.90;;;;;;5074536;28;20060;-87
2023/12/16 08:38:35;;;;;;;1043.53;925.58;;;6.70;99.90;;;;;;5054629;28;20063;-87
2023/12/16 08:41:06;;;;;;;1038.78;919.70;;;6.30;99.90;;;;;;5050702;28;20045;-89
2023/12/16 08:43:32;;;;;;;1041.35;919.72;;;6.80;99.90;;;;;;5060856;28;20103;-89
2023/12/16 08:45:58;;;;;;;992.63;893.13;;;7.20;99.90;;;;;;5056458;28;20041;-88
2023/12/16 08:48:23;;;;;;;1020.30;912.25;;;6.90;99.90;;;;;;5051429;28;20044;-87
2023/12/16 08:50:49;;;;;;;1028.68;919.95;;;8.10;99.90;;;;;;5069360;28;20048;-81
2023/12/16 08:53:14;;;;;;;994.65;888.03;;;7.00;99.90;;;;;;5062182;28;20037;-86
2023/12/16 08:55:41;;;;;;;1123.75;946.15;;;7.80;99.90;;;;;;5047985;28;20075;-87
2023/12/16 08:58:07;;;;;;;1038.97;923.25;;;7.00;99.90;;;;;;5048878;28;20063;-86
2023/12/16 09:00:36;;;;;;;1313.70;983.10;;;8.10;99.90;;;;;;5049591;28;20037;-86
2023/12/16 09:03:03;;;;;;;1043.13;926.38;;;6.60;99.90;;;;;;5062578;28;20509;-86
2023/12/16 09:05:31;;;;;;;1042.20;926.30;;;8.00;99.90;;;;;;5068865;28;20032;-86
2023/12/16 09:07:56;;;;;;;1042.47;928.70;;;7.50;99.90;;;;;;5047326;28;20544;-86
2023/12/16 09:10:22;;;;;;;1133.75;953.38;;;7.10;99.90;;;;;;5050653;28;20040;-86
2023/12/16 09:12:47;;;;;;;1041.95;917.03;;;8.30;99.90;;;;;;5049084;28;20028;-86
2023/12/16 09:15:15;;;;;;;1078.45;938.67;;;7.10;99.90;;;;;;5049564;28;20040;-87
2023/12/16 09:17:41;;;;;;;1084.38;940.63;;;7.10;99.90;;;;;;5065882;28;20041;-87
2023/12/16 09:20:07;;;;;;;1064.85;934.22;;;7.60;99.90;;;;;;5046857;28;20163;-86
2023/12/16 09:22:33;;;;;;;1026.82;916.60;;;7.10;99.90;;;;;;5052252;28;20068;-86
2023/12/16 09:25:00;;;;;;;1222.35;960.00;;;7.60;99.90;;;;;;5069177;28;20040;-86
2023/12/16 09:27:26;;;;;;;1278.18;975.08;;;8.20;99.90;;;;;;5048597;28;20039;-86
2023/12/16 09:29:52;;;;;;;1037.90;913.30;;;7.60;99.90;;;;;;5054033;28;20167;-86
2023/12/16 09:32:18;;;;;;;1066.18;939.85;;;7.10;99.90;;;;;;5053824;28;20047;-87
2023/12/16 09:34:44;;;;;;;1117.45;940.05;;;7.10;99.90;;;;;;5070355;28;20493;-87
2023/12/16 09:37:09;;;;;;;1216.22;963.40;;;7.10;99.90;;;;;;5049501;28;20109;-86
2023/12/16 09:39:35;;;;;;;1023.55;909.90;;;7.10;99.90;;;;;;5052581;28;20092;-86
2023/12/16 09:42:03;;;;;;;1055.28;922.63;;;7.10;99.90;;;;;;5051928;28;20516;-86
2023/12/16 09:44:34;;;;;;;1105.38;938.80;;;7.00;99.90;;;;;;5049300;28;20044;-86
2023/12/16 09:47:00;;;;;;;1089.63;939.55;;;7.40;99.90;;;;;;5051582;28;19935;-87
2023/12/16 09:49:26;;;;;;;1121.38;938.45;;;7.50;99.90;;;;;;5032833;28;20092;-87
2023/12/16 09:51:52;;;;;;;1074.05;930.53;;;8.00;99.90;;;;;;5083459;28;20040;-86
2023/12/16 09:54:18;;;;;;;1067.65;935.92;;;7.10;99.90;;;;;;5054035;28;20082;-87
2023/12/16 09:56:46;;;;;;;1049.85;926.95;;;8.00;99.90;;;;;;5057349;28;20040;-87
2023/12/16 09:59:13;;;;;;;1207.85;958.60;;;7.10;99.90;;;;;;5052148;28;20041;-87
2023/12/16 10:01:39;;;;;;;1089.35;953.42;;;7.10;99.90;;;;;;5069401;28;20065;-87
2023/12/16 10:04:07;;;;;;;1099.45;944.28;;;8.20;99.90;;;;;;5053257;28;20119;-87
2023/12/16 10:06:33;;;;;;;1044.60;924.47;;;8.10;99.90;;;;;;5054107;28;20047;-87
2023/12/16 10:08:59;;;;;;;1249.57;968.35;;;7.10;99.90;;;;;;5049970;28;20037;-87
2023/12/16 10:11:25;;;;;;;1078.72;938.80;;;8.00;99.90;;;;;;5070137;28;20029;-87
2023/12/16 10:14:00;;;;;;;1093.95;933.33;;;7.20;99.90;;;;;;5055712;28;20130;-86
2023/12/16 10:16:26;;;;;;;1052.30;937.17;;;7.20;99.90;;;;;;5057865;28;20029;-88
2023/12/16 10:18:53;;;;;;;1039.82;916.92;;;7.20;99.90;;;;;;5049249;28;20043;-87
2023/12/16 10:21:21;;;;;;;1210.63;960.97;;;7.20;99.90;;;;;;5067790;28;20052;-86
2023/12/16 10:23:48;;;;;;;1166.10;963.88;;;7.10;99.90;;;;;;5053857;28;20045;-87
2023/12/16 10:26:13;;;;;;;1060.75;919.58;;;7.30;99.90;;;;;;5070764;28;20122;-87
2023/12/16 10:28:39;;;;;;;1187.20;959.97;;;7.20;99.90;;;;;;5056108;28;20066;-87
2023/12/16 10:31:05;;;;;;;1278.10;968.10;;;7.30;99.90;;;;;;5069937;28;20106;-86
2023/12/16 10:33:31;;;;;;;1180.40;941.72;;;7.30;99.90;;;;;;5070254;28;20438;-86
2023/12/16 10:35:57;;;;;;;1374.25;995.28;;;8.50;99.90;;;;;;5048464;28;20067;-87
2023/12/16 10:38:25;;;;;;;1264.38;974.50;;;7.30;99.90;;;;;;5054750;28;20119;-86
2023/12/16 10:40:52;;;;;;;1357.30;984.10;;;8.10;99.90;;;;;;5052194;28;20041;-86
2023/12/16 10:43:18;;;;;;;1127.10;936.70;;;7.60;99.90;;;;;;5097393;28;20052;-86
2023/12/16 10:45:43;;;;;;;1251.88;972.10;;;7.40;99.90;;;;;;5077527;28;20049;-86
2023/12/16 10:48:11;;;;;;;1102.70;953.15;;;8.20;99.90;;;;;;5069320;28;20379;-87
2023/12/16 10:50:44;;;;;;;1247.13;974.22;;;7.30;99.90;;;;;;5070482;28;20037;-87
2023/12/16 10:53:21;;;;;;;1041.90;925.10;;;8.60;99.90;;;;;;5050763;28;20083;-87
2023/12/16 10:55:52;;;;;;;1189.15;964.70;;;7.60;99.90;;;;;;5072286;28;20040;-86
2023/12/16 10:58:25;;;;;;;1237.50;973.67;;;7.40;99.90;;;;;;5052999;28;20060;-87
2023/12/16 11:00:52;;;;;;;1097.97;941.33;;;7.60;99.90;;;;;;5048245;28;20094;-86
2023/12/16 11:03:27;;;;;;;1145.78;953.72;;;7.40;99.90;;;;;;5052959;28;20068;-86
2023/12/16 11:06:06;;;;;;;1114.50;954.17;;;7.40;99.90;;;;;;5035649;28;20037;-87
2023/12/16 11:08:34;;;;;;;1090.78;957.67;;;7.40;99.90;;;;;;5072696;28;20033;-88
2023/12/16 11:11:00;;;;;;;1062.13;935.55;;;7.40;99.90;;;;;;5051613;28;20539;-87
2023/12/16 11:13:27;;;;;;;1210.22;975.53;;;7.40;99.90;;;;;;5057574;28;20032;-87
2023/12/16 11:16:00;;;;;;;1245.07;965.95;;;7.60;99.90;;;;;;5052558;28;20036;-87
2023/12/16 11:18:28;;;;;;;;;;;7.40;99.90;;;;;;5050080;28;20090;-88
2023/12/16 11:21:01;;;;;;;1193.88;961.30;;;8.40;99.90;;;;;;5060377;28;19927;-86
2023/12/16 11:23:29;;;;;;;1060.68;929.60;;;8.20;99.90;;;;;;5035031;28;20048;-87
2023/12/16 11:25:55;;;;;;;1104.25;949.35;;;8.50;99.90;;;;;;5072485;28;20036;-87
2023/12/16 11:28:21;;;;;;;1223.28;974.47;;;8.60;99.90;;;;;;5041736;28;20033;-88
2023/12/16 11:30:47;;;;;;;1180.55;960.47;;;7.60;99.90;;;;;;5045834;28;20047;-86
2023/12/16 11:33:13;;;;;;;1178.00;958.67;;;7.90;99.90;;;;;;5046999;28;20094;-87
2023/12/16 11:35:50;;;;;;;1311.47;990.30;;;8.80;99.90;;;;;;5048577;28;20040;-86
2023/12/16 11:38:34;;;;;;;1151.82;965.47;;;7.60;99.90;;;;;;5047823;28;20032;-87
2023/12/16 11:41:00;;;;;;;1118.55;952.70;;;7.70;99.90;;;;;;5046013;28;20056;-86
2023/12/16 11:43:52;;;;;;;1114.38;944.08;;;7.70;99.90;;;;;;5046171;28;20520;-86
2023/12/16 11:46:37;;;;;;;1195.10;958.83;;;8.60;99.90;;;;;;5045969;28;20105;-88
2023/12/16 11:49:05;;;;;;;1211.38;975.75;;;7.80;99.90;;;;;;5062299;28;20545;-87
2023/12/16 11:51:35;;;;;;;1186.75;960.28;;;7.80;99.90;;;;;;5043612;28;20493;-87
2023/12/16 11:54:03;;;;;;;1244.10;980.92;;;7.80;99.90;;;;;;5046202;28;20040;-87
2023/12/16 11:56:29;;;;;;;1291.53;974.38;;;8.50;99.90;;;;;;5046554;28;20043;-88
2023/12/16 11:58:57;;;;;;;1120.78;973.53;;;7.90;99.90;;;;;;5059388;28;20033;-88
2023/12/16 12:01:27;;;;;;;1156.45;954.97;;;8.80;99.90;;;;;;5043155;28;20044;-86
2023/12/16 12:03:56;;;;;;;1181.63;944.40;;;7.90;99.90;;;;;;5043347;28;20041;-86
2023/12/16 12:06:22;;;;;;;1168.18;955.47;;;8.00;99.90;;;;;;5048082;28;20714;-87
2023/12/16 12:08:48;;;;;;;1298.20;983.38;;;8.20;99.90;;;;;;5048334;28;20128;-86
2023/12/16 12:11:20;;;;;;;1327.18;988.45;;;8.00;99.90;;;;;;5043335;28;20448;-86
2023/12/16 12:13:47;;;;;;;1057.80;941.65;;;8.70;99.90;;;;;;5042802;28;20041;-86